Lindley, NY (14858)

12:30 PM EST on February 09, 2016 (GMT -0500)
Orr Hill | | Change Station
CLOSE
Current Station
Personal Weather Station
Location: Addison, NY
Elevation: 1617 ft
Nearby Weather Stations

Elev 1617 ft 42.07 °N, 77.23 °W | Updated 11 seconds ago

Overcast
Overcast
37.2 °F
Feels Like 37 °F
N
2.4
Wind Variable Wind from WSW
Gusts 3.9 mph

Today
High -- | Low -- °F
--% Chance of Precip.
Yesterday
High -- | Low -- °F
Precip. -- in
Pressure 29.53 in
Visibility 10.0 miles
Clouds Overcast 1900 ft
Windchill 37 °F
Dew Point 37 °F
Humidity 99%
Rainfall 0.06 in
Snow Depth Not available.
7:13 AM 5:33 PM
New Moon, 2% visible
METAR KELM 091653Z 21005KT 10SM OVC019 03/M01 A2951 RMK AO2 SLP999 T00281011
Pressure 29.53 in
Visibility 10.0 miles
Clouds Overcast 1900 ft
Windchill 37 °F
Dew Point 37 °F
Humidity 99%
Rainfall 0.06 in
Snow Depth Not available.
7:13 AM 5:33 PM
New Moon, 2% visible
METAR KELM 091653Z 21005KT 10SM OVC019 03/M01 A2951 RMK AO2 SLP999 T00281011

10-Day Weather Forecast

Almanac

Astronomy

Feb. 09, 2016 Rise Set
Actual Time
Civil Twilight
Nautical Twilight
Astronomical Twilight
Moon
Length of Visible Light
Length of Day
Tomorrow will be .
, % of the Moon is Illuminated

Today's Extremes

State Highs State Lows

Community

WunderPhotos

Upload Photos

1,891,637 photos uploaded!

WunderBlog® & News

Nearby

Air Quality

  Air Quality AQ Index Pollutant
Not available.

Snow Depth

Station Depth Elevation

Earthquake Activity

City Distance Mag. Time & Date
Minimum magnitude displayed is 2.5.

Coastal Water Temperatures

Place Temperature

Stations

Nearby Weather Stations

Station Location Temp. Windchill Dew Point Humidity Wind Precip. Elev Updated Type
                   

Watches & Warnings

There are currently no watches in effect.